Time,TemperatureF,DewpointF,PressureIn,WindDirection,WindDirectionDegrees,WindSpeedMPH,WindSpeedGustMPH,Humidity,HourlyPrecipIn,Conditions,Clouds,dailyrainin,SoftwareType,DateUTC
2013-01-25 00:00:00,41.0,41.0,30.00,WSW,240,5.0,-999.0,99,-99.99,,,-99.99,,2013-01-25 08:00:00,
2013-01-25 00:21:00,41.0,41.0,30.00,WSW,240,5.0,-999.0,99,-99.99,,,-99.99,,2013-01-25 08:21:00,
2013-01-25 00:31:00,41.0,41.0,30.00,WSW,240,5.0,-999.0,99,-99.99,,,-99.99,,2013-01-25 08:31:00,
2013-01-25 00:41:00,41.0,41.0,30.00,WSW,240,5.0,-999.0,99,-99.99,,,-99.99,,2013-01-25 08:41:00,
2013-01-25 00:51:00,41.0,41.0,30.00,WSW,240,5.0,-999.0,99,-99.99,,,-99.99,,2013-01-25 08:51:00,
2013-01-25 01:00:00,41.0,41.0,30.00,SW,220,3.0,-999.0,99,-99.99,,,-99.99,,2013-01-25 09:00:00,
2013-01-25 01:21:00,41.0,41.0,30.00,SW,220,3.0,-999.0,99,-99.99,,,-99.99,,2013-01-25 09:21:00,
2013-01-25 01:31:00,41.0,41.0,30.00,SW,220,3.0,-999.0,99,-99.99,,,-99.99,,2013-01-25 09:31:00,
2013-01-25 01:41:00,41.0,41.0,30.00,SW,220,3.0,-999.0,99,-99.99,,,-99.99,,2013-01-25 09:41:00,
2013-01-25 01:51:00,41.0,41.0,30.00,SW,220,3.0,-999.0,99,-99.99,,,-99.99,,2013-01-25 09:51:00,
2013-01-25 02:00:00,41.0,41.0,30.00,WSW,250,2.0,-999.0,99,-99.99,,,-99.99,,2013-01-25 10:00:00,
2013-01-25 02:21:00,41.0,41.0,30.00,WSW,250,2.0,-999.0,99,-99.99,,,-99.99,,2013-01-25 10:21:00,
2013-01-25 02:31:00,41.0,41.0,30.00,WSW,250,2.0,-999.0,99,-99.99,,,-99.99,,2013-01-25 10:31:00,
2013-01-25 02:41:00,41.0,41.0,30.00,WSW,250,2.0,-999.0,99,-99.99,,,-99.99,,2013-01-25 10:41:00,
2013-01-25 02:51:00,41.0,41.0,30.00,WSW,250,2.0,-999.0,99,-99.99,,,-99.99,,2013-01-25 10:51:00,
2013-01-25 03:00:00,41.0,41.0,30.01,SW,230,2.0,-999.0,99,-99.99,,,-99.99,,2013-01-25 11:00:00,
2013-01-25 03:21:00,41.0,41.0,30.01,SW,230,2.0,-999.0,99,-99.99,,,-99.99,,2013-01-25 11:21:00,
2013-01-25 03:31:00,41.0,41.0,30.01,SW,230,2.0,-999.0,99,-99.99,,,-99.99,,2013-01-25 11:31:00,
2013-01-25 03:41:00,41.0,41.0,30.01,SW,230,2.0,-999.0,99,-99.99,,,-99.99,,2013-01-25 11:41:00,
2013-01-25 03:52:00,41.0,41.0,30.01,SW,230,2.0,-999.0,99,-99.99,,,-99.99,,2013-01-25 11:52:00,
2013-01-25 04:00:00,40.0,40.0,30.01,West,270,2.0,-999.0,99,-99.99,,,-99.99,,2013-01-25 12:00:00,
2013-01-25 04:21:00,40.0,40.0,30.01,West,270,2.0,-999.0,99,-99.99,,,-99.99,,2013-01-25 12:21:00,
2013-01-25 04:31:00,40.0,40.0,30.01,West,270,2.0,-999.0,99,-99.99,,,-99.99,,2013-01-25 12:31:00,
2013-01-25 04:41:00,40.0,40.0,30.01,West,270,2.0,-999.0,99,-99.99,,,-99.99,,2013-01-25 12:41:00,
2013-01-25 04:52:00,40.0,40.0,30.01,West,270,2.0,-999.0,99,-99.99,,,-99.99,,2013-01-25 12:52:00,
2013-01-25 05:00:00,38.0,38.0,30.01,NW,310,3.0,-999.0,99,-99.99,,,-99.99,,2013-01-25 13:00:00,
2013-01-25 05:21:00,38.0,38.0,30.01,NW,310,3.0,-999.0,99,-99.99,,,-99.99,,2013-01-25 13:21:00,
2013-01-25 05:31:00,38.0,38.0,30.01,NW,310,3.0,-999.0,99,-99.99,,,-99.99,,2013-01-25 13:31:00,
2013-01-25 05:42:00,38.0,38.0,30.01,NW,310,3.0,-999.0,99,-99.99,,,-99.99,,2013-01-25 13:42:00,
2013-01-25 05:52:00,38.0,38.0,30.01,NW,310,3.0,-999.0,99,-99.99,,,-99.99,,2013-01-25 13:52:00,
2013-01-25 06:00:00,39.0,39.0,30.03,NNE,20,1.0,-999.0,99,-99.99,,,-99.99,,2013-01-25 14:00:00,
2013-01-25 06:22:00,39.0,39.0,30.03,NNE,20,1.0,-999.0,99,-99.99,,,-99.99,,2013-01-25 14:22:00,
2013-01-25 06:31:00,39.0,39.0,30.03,NNE,20,1.0,-999.0,99,-99.99,,,-99.99,,2013-01-25 14:31:00,
2013-01-25 06:41:00,39.0,39.0,30.03,NNE,20,1.0,-999.0,99,-99.99,,,-99.99,,2013-01-25 14:41:00,
2013-01-25 06:52:00,39.0,39.0,30.03,NNE,20,1.0,-999.0,99,-99.99,,,-99.99,,2013-01-25 14:52:00,
2013-01-25 07:00:00,38.0,38.0,30.03,WNW,300,6.0,-999.0,100,-99.99,,,-99.99,,2013-01-25 15:00:00,
2013-01-25 07:21:00,38.0,38.0,30.03,WNW,300,6.0,-999.0,100,-99.99,,,-99.99,,2013-01-25 15:21:00,
2013-01-25 07:31:00,38.0,38.0,30.03,WNW,300,6.0,-999.0,100,-99.99,,,-99.99,,2013-01-25 15:31:00,
2013-01-25 07:41:00,38.0,38.0,30.03,WNW,300,6.0,-999.0,100,-99.99,,,-99.99,,2013-01-25 15:41:00,
2013-01-25 07:52:00,38.0,38.0,30.03,WNW,300,6.0,-999.0,100,-99.99,,,-99.99,,2013-01-25 15:52:00,
2013-01-25 08:00:00,39.0,39.0,30.04,West,260,3.0,-999.0,100,-99.99,,,-99.99,,2013-01-25 16:00:00,
2013-01-25 08:21:00,39.0,39.0,30.04,West,260,3.0,-999.0,100,-99.99,,,-99.99,,2013-01-25 16:21:00,
2013-01-25 08:31:00,39.0,39.0,30.04,West,260,3.0,-999.0,100,-99.99,,,-99.99,,2013-01-25 16:31:00,
2013-01-25 08:41:00,39.0,39.0,30.04,West,260,3.0,-999.0,100,-99.99,,,-99.99,,2013-01-25 16:41:00,
2013-01-25 08:51:00,39.0,39.0,30.04,West,260,3.0,-999.0,100,-99.99,,,-99.99,,2013-01-25 16:51:00,
2013-01-25 09:00:00,40.0,40.0,30.04,West,270,5.0,-999.0,99,-99.99,,,-99.99,,2013-01-25 17:00:00,
2013-01-25 09:21:00,40.0,40.0,30.04,West,270,5.0,-999.0,99,-99.99,,,-99.99,,2013-01-25 17:21:00,
2013-01-25 09:31:00,40.0,40.0,30.04,West,270,5.0,-999.0,99,-99.99,,,-99.99,,2013-01-25 17:31:00,
2013-01-25 09:41:00,40.0,40.0,30.04,West,270,5.0,-999.0,99,-99.99,,,-99.99,,2013-01-25 17:41:00,
2013-01-25 09:52:00,40.0,40.0,30.04,West,270,5.0,-999.0,99,-99.99,,,-99.99,,2013-01-25 17:52:00,
2013-01-25 10:00:00,41.0,41.0,30.05,SW,220,2.0,-999.0,99,-99.99,,,-99.99,,2013-01-25 18:00:00,
2013-01-25 10:22:00,41.0,41.0,30.05,SW,220,2.0,-999.0,99,-99.99,,,-99.99,,2013-01-25 18:22:00,
2013-01-25 10:31:00,41.0,41.0,30.05,SW,220,2.0,-999.0,99,-99.99,,,-99.99,,2013-01-25 18:31:00,
2013-01-25 10:41:00,41.0,41.0,30.05,SW,220,2.0,-999.0,99,-99.99,,,-99.99,,2013-01-25 18:41:00,
2013-01-25 10:51:00,41.0,41.0,30.05,SW,220,2.0,-999.0,99,-99.99,,,-99.99,,2013-01-25 18:51:00,
2013-01-25 11:00:00,45.0,44.0,30.06,WSW,240,1.0,-999.0,99,-99.99,,,-99.99,,2013-01-25 19:00:00,
2013-01-25 11:21:00,45.0,44.0,30.06,WSW,240,1.0,-999.0,99,-99.99,,,-99.99,,2013-01-25 19:21:00,
2013-01-25 11:31:00,45.0,44.0,30.06,WSW,240,1.0,-999.0,99,-99.99,,,-99.99,,2013-01-25 19:31:00,
2013-01-25 11:41:00,45.0,44.0,30.06,WSW,240,1.0,-999.0,99,-99.99,,,-99.99,,2013-01-25 19:41:00,
2013-01-25 11:52:00,45.0,44.0,30.06,WSW,240,1.0,-999.0,99,-99.99,,,-99.99,,2013-01-25 19:52:00,
2013-01-25 12:00:00,46.0,46.0,30.03,East,90,3.0,-999.0,98,-99.99,,,-99.99,,2013-01-25 20:00:00,
2013-01-25 12:21:00,46.0,46.0,30.03,East,90,3.0,-999.0,98,-99.99,,,-99.99,,2013-01-25 20:21:00,
2013-01-25 12:31:00,46.0,46.0,30.03,East,90,3.0,-999.0,98,-99.99,,,-99.99,,2013-01-25 20:31:00,
2013-01-25 12:41:00,46.0,46.0,30.03,East,90,3.0,-999.0,98,-99.99,,,-99.99,,2013-01-25 20:41:00,
2013-01-25 12:52:00,46.0,46.0,30.03,East,90,3.0,-999.0,98,-99.99,,,-99.99,,2013-01-25 20:52:00,
2013-01-25 13:00:00,43.0,43.0,30.01,NNE,20,1.0,-999.0,99,-99.99,,,-99.99,,2013-01-25 21:00:00,
2013-01-25 13:21:00,43.0,43.0,30.01,NNE,20,1.0,-999.0,99,-99.99,,,-99.99,,2013-01-25 21:21:00,
2013-01-25 13:32:00,43.0,43.0,30.01,NNE,20,1.0,-999.0,99,-99.99,,,-99.99,,2013-01-25 21:32:00,
2013-01-25 13:41:00,43.0,43.0,30.01,NNE,20,1.0,-999.0,99,-99.99,,,-99.99,,2013-01-25 21:41:00,
2013-01-25 13:51:00,43.0,43.0,30.01,NNE,20,1.0,-999.0,99,-99.99,,,-99.99,,2013-01-25 21:51:00,
2013-01-25 14:00:00,48.0,45.0,29.98,ESE,110,9.0,-999.0,89,-99.99,,,-99.99,,2013-01-25 22:00:00,
2013-01-25 14:21:00,48.0,45.0,29.98,ESE,110,9.0,-999.0,89,-99.99,,,-99.99,,2013-01-25 22:21:00,
2013-01-25 14:31:00,48.0,45.0,29.98,ESE,110,9.0,-999.0,89,-99.99,,,-99.99,,2013-01-25 22:31:00,
2013-01-25 14:41:00,48.0,45.0,29.98,ESE,110,9.0,-999.0,89,-99.99,,,-99.99,,2013-01-25 22:41:00,
2013-01-25 14:51:00,48.0,45.0,29.98,ESE,110,9.0,-999.0,89,-99.99,,,-99.99,,2013-01-25 22:51:00,
2013-01-25 15:00:00,49.0,44.0,29.97,South,170,1.0,-999.0,83,-99.99,,,-99.99,,2013-01-25 23:00:00,
2013-01-25 15:21:00,49.0,44.0,29.97,South,170,1.0,-999.0,83,-99.99,,,-99.99,,2013-01-25 23:21:00,
2013-01-25 15:31:00,49.0,44.0,29.97,South,170,1.0,-999.0,83,-99.99,,,-99.99,,2013-01-25 23:31:00,
2013-01-25 15:41:00,49.0,44.0,29.97,South,170,1.0,-999.0,83,-99.99,,,-99.99,,2013-01-25 23:41:00,
2013-01-25 15:52:00,49.0,44.0,29.97,South,170,1.0,-999.0,83,-99.99,,,-99.99,,2013-01-25 23:52:00,
2013-01-25 16:00:00,47.0,45.0,29.97,ESE,110,6.0,-999.0,89,-99.99,,,-99.99,,2013-01-26 00:00:00,
2013-01-25 16:21:00,47.0,45.0,29.97,ESE,110,6.0,-999.0,89,-99.99,,,-99.99,,2013-01-26 00:21:00,
2013-01-25 16:31:00,47.0,45.0,29.97,ESE,110,6.0,-999.0,89,-99.99,,,-99.99,,2013-01-26 00:31:00,
2013-01-25 16:41:00,47.0,45.0,29.97,ESE,110,6.0,-999.0,89,-99.99,,,-99.99,,2013-01-26 00:41:00,
2013-01-25 16:52:00,47.0,45.0,29.97,ESE,110,6.0,-999.0,89,-99.99,,,-99.99,,2013-01-26 00:52:00,
2013-01-25 17:00:00,45.0,43.0,29.95,ESE,110,6.0,-999.0,94,-99.99,,,-99.99,,2013-01-26 01:00:00,
2013-01-25 17:22:00,45.0,43.0,29.95,ESE,110,6.0,-999.0,94,-99.99,,,-99.99,,2013-01-26 01:22:00,
2013-01-25 17:31:00,45.0,43.0,29.95,ESE,110,6.0,-999.0,94,-99.99,,,-99.99,,2013-01-26 01:31:00,
2013-01-25 17:41:00,45.0,43.0,29.95,ESE,110,6.0,-999.0,94,-99.99,,,-99.99,,2013-01-26 01:41:00,
2013-01-25 17:52:00,45.0,43.0,29.95,ESE,110,6.0,-999.0,94,-99.99,,,-99.99,,2013-01-26 01:52:00,
2013-01-25 18:00:00,42.0,42.0,29.95,North,0,0.0,-999.0,98,-99.99,,,-99.99,,2013-01-26 02:00:00,
2013-01-25 18:21:00,42.0,42.0,29.95,North,0,0.0,-999.0,98,-99.99,,,-99.99,,2013-01-26 02:21:00,
2013-01-25 18:32:00,42.0,42.0,29.95,North,0,0.0,-999.0,98,-99.99,,,-99.99,,2013-01-26 02:32:00,
2013-01-25 18:41:00,42.0,42.0,29.95,North,0,0.0,-999.0,98,-99.99,,,-99.99,,2013-01-26 02:41:00,
2013-01-25 18:52:00,42.0,42.0,29.95,North,0,0.0,-999.0,98,-99.99,,,-99.99,,2013-01-26 02:52:00,
2013-01-25 19:00:00,41.0,41.0,29.94,WSW,250,1.0,-999.0,99,-99.99,,,-99.99,,2013-01-26 03:00:00,
2013-01-25 19:21:00,41.0,41.0,29.94,WSW,250,1.0,-999.0,99,-99.99,,,-99.99,,2013-01-26 03:21:00,
2013-01-25 19:31:00,41.0,41.0,29.94,WSW,250,1.0,-999.0,99,-99.99,,,-99.99,,2013-01-26 03:31:00,
2013-01-25 19:42:00,41.0,41.0,29.94,WSW,250,1.0,-999.0,99,-99.99,,,-99.99,,2013-01-26 03:42:00,
2013-01-25 19:51:00,41.0,41.0,29.94,WSW,250,1.0,-999.0,99,-99.99,,,-99.99,,2013-01-26 03:51:00,
2013-01-25 20:21:00,37.0,37.0,29.94,North,0,0.0,-999.0,99,-99.99,,,-99.99,,2013-01-26 04:21:00,
2013-01-25 20:32:00,37.0,37.0,29.94,North,0,0.0,-999.0,99,-99.99,,,-99.99,,2013-01-26 04:32:00,
2013-01-25 20:42:00,37.0,37.0,29.94,North,0,0.0,-999.0,99,-99.99,,,-99.99,,2013-01-26 04:42:00,
2013-01-25 20:52:00,37.0,37.0,29.94,North,0,0.0,-999.0,99,-99.99,,,-99.99,,2013-01-26 04:52:00,
2013-01-25 21:00:00,38.0,37.0,29.93,West,280,1.0,-999.0,99,-99.99,,,-99.99,,2013-01-26 05:00:00,
2013-01-25 21:22:00,38.0,37.0,29.93,West,280,1.0,-999.0,99,-99.99,,,-99.99,,2013-01-26 05:22:00,
2013-01-25 21:32:00,38.0,37.0,29.93,West,280,1.0,-999.0,99,-99.99,,,-99.99,,2013-01-26 05:32:00,
2013-01-25 21:41:00,38.0,37.0,29.93,West,280,1.0,-999.0,99,-99.99,,,-99.99,,2013-01-26 05:41:00,
2013-01-25 21:52:00,38.0,37.0,29.93,West,280,1.0,-999.0,99,-99.99,,,-99.99,,2013-01-26 05:52:00,
2013-01-25 22:00:00,39.0,39.0,29.92,WSW,240,1.0,-999.0,100,-99.99,,,-99.99,,2013-01-26 06:00:00,
2013-01-25 22:21:00,39.0,39.0,29.92,WSW,240,1.0,-999.0,100,-99.99,,,-99.99,,2013-01-26 06:21:00,
2013-01-25 22:31:00,39.0,39.0,29.92,WSW,240,1.0,-999.0,100,-99.99,,,-99.99,,2013-01-26 06:31:00,
2013-01-25 22:41:00,39.0,39.0,29.92,WSW,240,1.0,-999.0,100,-99.99,,,-99.99,,2013-01-26 06:41:00,
2013-01-25 22:51:00,39.0,39.0,29.92,WSW,240,1.0,-999.0,100,-99.99,,,-99.99,,2013-01-26 06:51:00,
2013-01-25 23:00:00,40.0,40.0,29.91,SW,230,3.0,-999.0,100,-99.99,,,-99.99,,2013-01-26 07:00:00,
2013-01-25 23:21:00,40.0,40.0,29.91,SW,230,3.0,-999.0,100,-99.99,,,-99.99,,2013-01-26 07:21:00,
2013-01-25 23:32:00,40.0,40.0,29.91,SW,230,3.0,-999.0,100,-99.99,,,-99.99,,2013-01-26 07:32:00,
2013-01-25 23:41:00,40.0,40.0,29.91,SW,230,3.0,-999.0,100,-99.99,,,-99.99,,2013-01-26 07:41:00,
2013-01-25 23:51:00,40.0,40.0,29.91,SW,230,3.0,-999.0,100,-99.99,,,-99.99,,2013-01-26 07:51:00,